sensor_id;sensor_type;location;lat;lon;timestamp;pressure;altitude;pressure_sealevel;temperature
20730;BMP280;10526;50.850;12.928;2023-03-03T03:55:59;98345.75;;;-0.46
20730;BMP280;10526;50.850;12.928;2023-03-03T04:00:26;98339.72;;;-0.46
20730;BMP280;10526;50.850;12.928;2023-03-03T04:04:52;98334.03;;;-0.49
20730;BMP280;10526;50.850;12.928;2023-03-03T04:09:15;98334.31;;;-0.59
20730;BMP280;10526;50.850;12.928;2023-03-03T04:13:37;98335.06;;;-0.58
20730;BMP280;10526;50.850;12.928;2023-03-03T04:18:03;98349.72;;;-0.57
20730;BMP280;10526;50.850;12.928;2023-03-03T04:22:25;98351.41;;;-0.61
20730;BMP280;10526;50.850;12.928;2023-03-03T04:26:48;98360.00;;;-0.61
20730;BMP280;10526;50.850;12.928;2023-03-03T04:31:10;98366.47;;;-0.58
20730;BMP280;10526;50.850;12.928;2023-03-03T04:35:32;98353.88;;;-0.56
20730;BMP280;10526;50.850;12.928;2023-03-03T04:39:54;98367.53;;;-0.59
20730;BMP280;10526;50.850;12.928;2023-03-03T04:44:16;98365.53;;;-0.62
20730;BMP280;10526;50.850;12.928;2023-03-03T04:48:39;98370.16;;;-0.59
20730;BMP280;10526;50.850;12.928;2023-03-03T04:53:01;98371.69;;;-0.67
20730;BMP280;10526;50.850;12.928;2023-03-03T04:57:23;98382.63;;;-0.65
20730;BMP280;10526;50.850;12.928;2023-03-03T05:01:46;98376.16;;;-0.59
20730;BMP280;10526;50.850;12.928;2023-03-03T05:06:08;98387.09;;;-0.57
20730;BMP280;10526;50.850;12.928;2023-03-03T05:10:30;98380.16;;;-0.61
20730;BMP280;10526;50.850;12.928;2023-03-03T05:14:55;98380.28;;;-0.75
20730;BMP280;10526;50.850;12.928;2023-03-03T05:19:17;98394.25;;;-0.80
20730;BMP280;10526;50.850;12.928;2023-03-03T05:23:39;98403.88;;;-0.89
20730;BMP280;10526;50.850;12.928;2023-03-03T05:28:01;98409.47;;;-0.82
20730;BMP280;10526;50.850;12.928;2023-03-03T05:32:23;98407.94;;;-0.83
20730;BMP280;10526;50.850;12.928;2023-03-03T05:36:45;98413.78;;;-1.08
20730;BMP280;10526;50.850;12.928;2023-03-03T05:41:07;98423.31;;;-1.12
20730;BMP280;10526;50.850;12.928;2023-03-03T05:45:29;98424.22;;;-1.17
20730;BMP280;10526;50.850;12.928;2023-03-03T05:49:50;98409.31;;;-1.16
20730;BMP280;10526;50.850;12.928;2023-03-03T05:54:13;98408.41;;;-1.12
20730;BMP280;10526;50.850;12.928;2023-03-03T05:58:35;98423.38;;;-1.04
20730;BMP280;10526;50.850;12.928;2023-03-03T06:02:57;98406.19;;;-0.96
20730;BMP280;10526;50.850;12.928;2023-03-03T06:07:19;98413.59;;;-0.89
20730;BMP280;10526;50.850;12.928;2023-03-03T06:11:41;98409.94;;;-0.80
20730;BMP280;10526;50.850;12.928;2023-03-03T06:16:03;98415.19;;;-0.71
20730;BMP280;10526;50.850;12.928;2023-03-03T06:20:26;98421.38;;;-0.67
20730;BMP280;10526;50.850;12.928;2023-03-03T06:24:48;98422.13;;;-0.66
20730;BMP280;10526;50.850;12.928;2023-03-03T06:29:10;98434.00;;;-0.60
20730;BMP280;10526;50.850;12.928;2023-03-03T06:33:35;98433.88;;;-0.55
20730;BMP280;10526;50.850;12.928;2023-03-03T06:37:58;98426.03;;;-0.46
20730;BMP280;10526;50.850;12.928;2023-03-03T06:42:20;98413.13;;;-0.43
20730;BMP280;10526;50.850;12.928;2023-03-03T06:46:42;98422.38;;;-0.37
20730;BMP280;10526;50.850;12.928;2023-03-03T06:51:31;98418.72;;;-0.27
20730;BMP280;10526;50.850;12.928;2023-03-03T06:55:56;98409.22;;;-0.23
20730;BMP280;10526;50.850;12.928;2023-03-03T07:00:23;98414.63;;;-0.11
20730;BMP280;10526;50.850;12.928;2023-03-03T07:04:45;98423.41;;;-0.07
20730;BMP280;10526;50.850;12.928;2023-03-03T07:09:34;98424.47;;;0.01
20730;BMP280;10526;50.850;12.928;2023-03-03T07:13:55;98432.81;;;0.12
20730;BMP280;10526;50.850;12.928;2023-03-03T07:22:53;98443.75;;;0.22
20730;BMP280;10526;50.850;12.928;2023-03-03T07:27:21;98447.00;;;0.19
20730;BMP280;10526;50.850;12.928;2023-03-03T07:31:48;98444.50;;;0.14
20730;BMP280;10526;50.850;12.928;2023-03-03T07:36:35;98473.78;;;0.16
20730;BMP280;10526;50.850;12.928;2023-03-03T07:41:01;98479.34;;;0.23
20730;BMP280;10526;50.850;12.928;2023-03-03T07:45:30;98486.44;;;0.32
20730;BMP280;10526;50.850;12.928;2023-03-03T07:50:07;98484.75;;;0.27
20730;BMP280;10526;50.850;12.928;2023-03-03T07:54:42;98494.44;;;0.27
20730;BMP280;10526;50.850;12.928;2023-03-03T07:59:24;98475.31;;;0.17
20730;BMP280;10526;50.850;12.928;2023-03-03T08:03:46;98487.34;;;0.18
20730;BMP280;10526;50.850;12.928;2023-03-03T08:08:28;98491.66;;;0.40
20730;BMP280;10526;50.850;12.928;2023-03-03T08:12:51;98491.78;;;0.53
20730;BMP280;10526;50.850;12.928;2023-03-03T08:17:34;98489.81;;;0.58
20730;BMP280;10526;50.850;12.928;2023-03-03T08:22:05;98497.50;;;0.55
20730;BMP280;10526;50.850;12.928;2023-03-03T08:26:30;98496.28;;;0.52
20730;BMP280;10526;50.850;12.928;2023-03-03T08:30:52;98478.56;;;0.58
20730;BMP280;10526;50.850;12.928;2023-03-03T08:35:34;98489.03;;;0.66
20730;BMP280;10526;50.850;12.928;2023-03-03T08:39:56;98490.72;;;0.62
20730;BMP280;10526;50.850;12.928;2023-03-03T08:44:18;98491.19;;;0.64
20730;BMP280;10526;50.850;12.928;2023-03-03T08:48:41;98498.72;;;0.57
20730;BMP280;10526;50.850;12.928;2023-03-03T08:53:03;98493.81;;;0.47
20730;BMP280;10526;50.850;12.928;2023-03-03T08:57:25;98503.22;;;0.48
20730;BMP280;10526;50.850;12.928;2023-03-03T09:01:48;98506.59;;;0.48
20730;BMP280;10526;50.850;12.928;2023-03-03T09:06:10;98507.53;;;0.53
20730;BMP280;10526;50.850;12.928;2023-03-03T09:10:32;98504.13;;;0.61
20730;BMP280;10526;50.850;12.928;2023-03-03T09:15:14;98501.38;;;0.66
20730;BMP280;10526;50.850;12.928;2023-03-03T09:19:37;98507.03;;;0.77
20730;BMP280;10526;50.850;12.928;2023-03-03T09:24:00;98505.34;;;0.89
20730;BMP280;10526;50.850;12.928;2023-03-03T09:28:31;98516.56;;;1.07
20730;BMP280;10526;50.850;12.928;2023-03-03T09:32:55;98512.69;;;1.22
20730;BMP280;10526;50.850;12.928;2023-03-03T09:37:33;98517.78;;;1.18
20730;BMP280;10526;50.850;12.928;2023-03-03T09:47:13;98529.28;;;1.43
20730;BMP280;10526;50.850;12.928;2023-03-03T09:56:43;98523.50;;;1.67
20730;BMP280;10526;50.850;12.928;2023-03-03T10:39:57;98543.75;;;1.49
20730;BMP280;10526;50.850;12.928;2023-03-03T11:04:49;98548.25;;;1.87
20730;BMP280;10526;50.850;12.928;2023-03-03T11:14:26;98548.31;;;2.08
20730;BMP280;10526;50.850;12.928;2023-03-03T11:24:23;98546.16;;;2.52
20730;BMP280;10526;50.850;12.928;2023-03-03T11:29:25;98548.84;;;2.64
20730;BMP280;10526;50.850;12.928;2023-03-03T11:38:53;98545.72;;;2.50
20730;BMP280;10526;50.850;12.928;2023-03-03T11:43:23;98538.00;;;2.45
20730;BMP280;10526;50.850;12.928;2023-03-03T11:48:07;98538.97;;;2.61
20730;BMP280;10526;50.850;12.928;2023-03-03T11:57:25;98531.84;;;2.95
20730;BMP280;10526;50.850;12.928;2023-03-03T12:01:59;98530.78;;;3.08
20730;BMP280;10526;50.850;12.928;2023-03-03T12:06:42;98527.28;;;3.04
20730;BMP280;10526;50.850;12.928;2023-03-03T12:35:35;98528.78;;;2.60
20730;BMP280;10526;50.850;12.928;2023-03-03T12:40:19;98518.06;;;2.44
20730;BMP280;10526;50.850;12.928;2023-03-03T12:45:33;98516.03;;;2.29
20730;BMP280;10526;50.850;12.928;2023-03-03T12:50:14;98504.44;;;2.30
20730;BMP280;10526;50.850;12.928;2023-03-03T12:55:31;98507.00;;;2.38
20730;BMP280;10526;50.850;12.928;2023-03-03T13:05:11;98507.34;;;2.49
20730;BMP280;10526;50.850;12.928;2023-03-03T13:18:59;98495.78;;;2.08
20730;BMP280;10526;50.850;12.928;2023-03-03T13:23:47;98494.25;;;2.28
20730;BMP280;10526;50.850;12.928;2023-03-03T13:33:27;98484.91;;;2.52
20730;BMP280;10526;50.850;12.928;2023-03-03T13:37:55;98488.50;;;2.47
20730;BMP280;10526;50.850;12.928;2023-03-03T13:42:36;98496.22;;;2.31
20730;BMP280;10526;50.850;12.928;2023-03-03T13:47:20;98499.38;;;2.25
20730;BMP280;10526;50.850;12.928;2023-03-03T13:52:14;98506.16;;;2.26
20730;BMP280;10526;50.850;12.928;2023-03-03T13:57:18;98504.34;;;2.38
20730;BMP280;10526;50.850;12.928;2023-03-03T14:02:18;98493.28;;;2.12
20730;BMP280;10526;50.850;12.928;2023-03-03T14:06:54;98493.41;;;2.15
20730;BMP280;10526;50.850;12.928;2023-03-03T14:11:28;98491.28;;;2.30
20730;BMP280;10526;50.850;12.928;2023-03-03T14:20:31;98485.91;;;2.26
20730;BMP280;10526;50.850;12.928;2023-03-03T14:25:09;98479.72;;;2.31
20730;BMP280;10526;50.850;12.928;2023-03-03T14:29:33;98470.97;;;2.18
20730;BMP280;10526;50.850;12.928;2023-03-03T14:38:46;98483.19;;;2.14
20730;BMP280;10526;50.850;12.928;2023-03-03T14:43:24;98480.38;;;1.98
20730;BMP280;10526;50.850;12.928;2023-03-03T14:47:47;98472.84;;;1.88
20730;BMP280;10526;50.850;12.928;2023-03-03T14:56:37;98442.28;;;1.62
20730;BMP280;10526;50.850;12.928;2023-03-03T15:05:54;98446.81;;;1.83
20730;BMP280;10526;50.850;12.928;2023-03-03T15:10:47;98430.97;;;1.70
20730;BMP280;10526;50.850;12.928;2023-03-03T15:15:18;98436.03;;;1.76
20730;BMP280;10526;50.850;12.928;2023-03-03T15:24:33;98428.31;;;1.20
20730;BMP280;10526;50.850;12.928;2023-03-03T15:34:30;98430.56;;;0.83
20730;BMP280;10526;50.850;12.928;2023-03-03T15:44:15;98430.25;;;0.85
20730;BMP280;10526;50.850;12.928;2023-03-03T16:03:21;98423.34;;;0.63
20730;BMP280;10526;50.850;12.928;2023-03-03T16:12:42;98425.66;;;0.64
20730;BMP280;10526;50.850;12.928;2023-03-03T16:17:25;98435.84;;;0.57
20730;BMP280;10526;50.850;12.928;2023-03-03T16:26:53;98440.00;;;0.41
20730;BMP280;10526;50.850;12.928;2023-03-03T16:31:48;98438.38;;;0.28
20730;BMP280;10526;50.850;12.928;2023-03-03T16:40:57;98449.91;;;0.18
20730;BMP280;10526;50.850;12.928;2023-03-03T16:45:32;98454.84;;;0.28
20730;BMP280;10526;50.850;12.928;2023-03-03T16:55:17;98448.66;;;0.07
20730;BMP280;10526;50.850;12.928;2023-03-03T17:00:15;98443.41;;;0.07
20730;BMP280;10526;50.850;12.928;2023-03-03T17:05:22;98448.03;;;0.10
20730;BMP280;10526;50.850;12.928;2023-03-03T17:10:24;98446.50;;;0.00
20730;BMP280;10526;50.850;12.928;2023-03-03T17:44:10;98467.25;;;-0.12
20730;BMP280;10526;50.850;12.928;2023-03-03T17:54:34;98465.72;;;-0.13
20730;BMP280;10526;50.850;12.928;2023-03-03T18:00:02;98456.34;;;-0.14
20730;BMP280;10526;50.850;12.928;2023-03-03T18:04:48;98455.53;;;-0.23
20730;BMP280;10526;50.850;12.928;2023-03-03T18:09:51;98461.38;;;-0.27
20730;BMP280;10526;50.850;12.928;2023-03-03T18:14:41;98460.31;;;-0.26
20730;BMP280;10526;50.850;12.928;2023-03-03T18:24:30;98464.97;;;-0.14
20730;BMP280;10526;50.850;12.928;2023-03-03T18:38:27;98466.31;;;-0.16
20730;BMP280;10526;50.850;12.928;2023-03-03T18:42:51;98462.78;;;-0.20
20730;BMP280;10526;50.850;12.928;2023-03-03T18:47:14;98462.66;;;-0.15
20730;BMP280;10526;50.850;12.928;2023-03-03T18:56:02;98468.19;;;-0.08
20730;BMP280;10526;50.850;12.928;2023-03-03T19:00:30;98472.81;;;-0.05
20730;BMP280;10526;50.850;12.928;2023-03-03T19:05:23;98477.44;;;-0.02
20730;BMP280;10526;50.850;12.928;2023-03-03T19:09:58;98475.00;;;0.02
20730;BMP280;10526;50.850;12.928;2023-03-03T19:28:08;98471.28;;;0.11
20730;BMP280;10526;50.850;12.928;2023-03-03T19:47:02;98476.25;;;0.04
20730;BMP280;10526;50.850;12.928;2023-03-03T19:56:47;98479.00;;;0.08
20730;BMP280;10526;50.850;12.928;2023-03-03T20:01:25;98481.94;;;0.06
20730;BMP280;10526;50.850;12.928;2023-03-03T20:10:59;98475.94;;;0.06
20730;BMP280;10526;50.850;12.928;2023-03-03T20:24:53;98471.94;;;0.08
20730;BMP280;10526;50.850;12.928;2023-03-03T20:35:00;98464.06;;;0.08
20730;BMP280;10526;50.850;12.928;2023-03-03T20:45:26;98453.59;;;0.08
20730;BMP280;10526;50.850;12.928;2023-03-03T20:54:48;98458.53;;;0.18
20730;BMP280;10526;50.850;12.928;2023-03-03T21:04:29;98457.31;;;0.16
20730;BMP280;10526;50.850;12.928;2023-03-03T21:08:55;98461.31;;;0.13
20730;BMP280;10526;50.850;12.928;2023-03-03T21:17:58;98454.81;;;0.11
20730;BMP280;10526;50.850;12.928;2023-03-03T21:22:21;98452.53;;;0.09
20730;BMP280;10526;50.850;12.928;2023-03-03T21:31:16;98448.22;;;0.13
20730;BMP280;10526;50.850;12.928;2023-03-03T21:35:56;98438.19;;;0.15
20730;BMP280;10526;50.850;12.928;2023-03-03T21:40:24;98440.81;;;0.15
20730;BMP280;10526;50.850;12.928;2023-03-03T21:44:49;98439.44;;;0.18
20730;BMP280;10526;50.850;12.928;2023-03-03T21:49:12;98434.63;;;0.11
20730;BMP280;10526;50.850;12.928;2023-03-03T21:53:44;98436.81;;;0.09
20730;BMP280;10526;50.850;12.928;2023-03-03T21:58:06;98428.19;;;0.09
20730;BMP280;10526;50.850;12.928;2023-03-03T22:02:31;98431.88;;;0.08
20730;BMP280;10526;50.850;12.928;2023-03-03T22:06:53;98424.47;;;0.10
20730;BMP280;10526;50.850;12.928;2023-03-03T22:11:15;98430.31;;;0.15
20730;BMP280;10526;50.850;12.928;2023-03-03T22:15:37;98434.94;;;0.18
20730;BMP280;10526;50.850;12.928;2023-03-03T22:20:00;98434.03;;;0.23
20730;BMP280;10526;50.850;12.928;2023-03-03T22:24:22;98433.91;;;0.19
20730;BMP280;10526;50.850;12.928;2023-03-03T22:28:44;98426.03;;;0.19
20730;BMP280;10526;50.850;12.928;2023-03-03T22:33:06;98429.72;;;0.18
20730;BMP280;10526;50.850;12.928;2023-03-03T22:37:28;98422.34;;;0.20
20730;BMP280;10526;50.850;12.928;2023-03-03T22:41:50;98417.09;;;0.20
20730;BMP280;10526;50.850;12.928;2023-03-03T22:46:12;98410.78;;;0.21
20730;BMP280;10526;50.850;12.928;2023-03-03T22:50:37;98408.75;;;0.18
20730;BMP280;10526;50.850;12.928;2023-03-03T22:55:01;98410.16;;;0.16
20730;BMP280;10526;50.850;12.928;2023-03-03T22:59:24;98404.13;;;0.15
20730;BMP280;10526;50.850;12.928;2023-03-03T23:03:46;98397.38;;;0.14
20730;BMP280;10526;50.850;12.928;2023-03-03T23:08:13;98397.22;;;0.11
20730;BMP280;10526;50.850;12.928;2023-03-03T23:12:36;98388.91;;;0.09
20730;BMP280;10526;50.850;12.928;2023-03-03T23:16:58;98388.91;;;0.09
20730;BMP280;10526;50.850;12.928;2023-03-03T23:21:20;98389.06;;;0.12
20730;BMP280;10526;50.850;12.928;2023-03-03T23:25:42;98381.38;;;0.16
20730;BMP280;10526;50.850;12.928;2023-03-03T23:30:05;98383.19;;;0.15
20730;BMP280;10526;50.850;12.928;2023-03-03T23:34:29;98382.13;;;0.16
20730;BMP280;10526;50.850;12.928;2023-03-03T23:38:51;98376.28;;;0.19
20730;BMP280;10526;50.850;12.928;2023-03-03T23:43:13;98376.28;;;0.19
20730;BMP280;10526;50.850;12.928;2023-03-03T23:47:35;98367.03;;;0.22
20730;BMP280;10526;50.850;12.928;2023-03-03T23:51:57;98361.31;;;0.11
20730;BMP280;10526;50.850;12.928;2023-03-03T23:56:19;98362.56;;;0.05
